Time;durP1;ratioP1;P1;durP2;ratioP2;P2;SDS_P1;SDS_P2;PMS_P1;PMS_P2;Temp;Humidity;BMP_temperature;BMP_pressure;BME280_temperature;BME280_humidity;BME280_pressure;Samples;Min_cycle;Max_cycle;Signal;HPM_P1;HPM_P2
2022/06/26 00:00:40;;;;;;;;;11.00;10.00;;;;;25.92;41.25;98557.13;6129250;28;97347;-89
2022/06/26 00:03:45;;;;;;;;;11.75;9.75;;;;;25.86;41.10;98550.97;6128590;28;96535;-89
2022/06/26 00:06:52;;;;;;;;;13.00;11.00;;;;;25.94;40.97;98574.19;6130761;28;97958;-89
2022/06/26 00:09:56;;;;;;;;;11.80;10.80;;;;;25.75;41.01;98552.47;6136979;28;97986;-89
2022/06/26 00:13:00;;;;;;;;;12.60;12.00;;;;;25.92;40.81;98581.97;6129063;28;96745;-89
2022/06/26 00:16:07;;;;;;;;;11.00;11.00;;;;;25.57;40.94;98523.25;6144203;28;97007;-89
2022/06/26 00:19:11;;;;;;;;;12.50;12.00;;;;;25.58;41.08;98529.59;6148417;28;97494;-89
2022/06/26 00:22:15;;;;;;;;;10.00;10.00;;;;;25.92;40.74;98581.16;6153565;28;97396;-89
2022/06/26 00:25:19;;;;;;;;;10.00;10.00;;;;;25.94;40.28;98578.91;6145394;28;97508;-89
2022/06/26 00:28:22;;;;;;;;;10.00;9.40;;;;;25.74;40.45;98553.59;6129076;28;97814;-89
2022/06/26 00:31:36;;;;;;;;;12.00;11.00;;;;;25.93;40.16;98567.03;6128928;28;97767;-89
2022/06/26 00:34:42;;;;;;;;;12.00;11.00;;;;;25.76;39.95;98539.44;6137434;28;97554;-89
2022/06/26 00:37:46;;;;;;;;;10.00;10.00;;;;;26.02;39.73;98578.03;6171186;28;96825;-89
2022/06/26 00:40:50;;;;;;;;;11.40;10.40;;;;;25.92;39.33;98559.06;6196121;28;96518;-89
2022/06/26 00:44:13;;;;;;;;;12.00;11.00;;;;;25.66;39.35;98524.06;6183847;28;96482;-89
2022/06/26 00:51:52;;;;;;;;;9.50;9.50;;;;;25.61;39.70;98524.22;6219919;28;97480;-88
2022/06/26 00:54:56;;;;;;;;;11.00;10.00;;;;;25.84;39.24;98561.53;6196662;28;97539;-89
2022/06/26 00:58:22;;;;;;;;;11.00;11.00;;;;;25.94;39.04;98585.22;6220564;28;96610;-89
2022/06/26 01:01:49;;;;;;;;;10.50;10.00;;;;;25.92;39.33;98584.72;6204960;28;96928;-89
2022/06/26 01:04:55;;;;;;;;;13.60;11.00;;;;;25.84;39.42;98589.16;6192265;28;97707;-88
2022/06/26 01:08:00;;;;;;;;;11.00;10.20;;;;;25.52;39.35;98544.69;6195618;28;97754;-88
2022/06/26 01:11:17;;;;;;;;;12.80;11.20;;;;;25.77;39.43;98591.59;6195901;28;96966;-88
2022/06/26 01:14:22;;;;;;;;;12.00;11.00;;;;;25.67;39.63;98599.41;6207743;28;97015;-89
2022/06/26 01:17:28;;;;;;;;;11.40;10.60;;;;;25.43;40.10;98570.34;6191603;28;97228;-89
2022/06/26 01:20:54;;;;;;;;;13.00;11.67;;;;;25.54;40.42;98590.16;6195604;28;97277;-89
2022/06/26 01:24:08;;;;;;;;;13.00;12.00;;;;;25.10;40.22;98527.88;6170984;28;98131;-88
2022/06/26 01:27:12;;;;;;;;;13.00;12.00;;;;;25.36;40.27;98574.75;6188016;28;97990;-88
2022/06/26 01:30:16;;;;;;;;;12.25;12.25;;;;;25.40;40.53;98584.81;6187307;28;96512;-88
2022/06/26 01:33:21;;;;;;;;;12.00;12.00;;;;;25.18;40.59;98559.31;6173015;28;97702;-88
2022/06/26 01:36:26;;;;;;;;;12.33;11.00;;;;;25.25;40.74;98588.06;6201783;28;96804;-89
2022/06/26 01:39:33;;;;;;;;;12.60;11.00;;;;;25.17;40.98;98579.81;6190517;28;97685;-88
2022/06/26 01:42:37;;;;;;;;;10.20;10.00;;;;;24.96;41.04;98549.28;6185987;28;97464;-88
2022/06/26 01:45:44;;;;;;;;;11.00;10.00;;;;;24.93;40.96;98542.44;6182801;28;96602;-89
2022/06/26 01:48:49;;;;;;;;;13.00;12.00;;;;;25.09;41.01;98580.59;6209138;28;99187;-88
2022/06/26 01:51:54;;;;;;;;;11.00;11.00;;;;;24.63;41.23;98512.25;6190701;28;96513;-89
2022/06/26 01:54:59;;;;;;;;;13.00;12.40;;;;;24.87;41.50;98568.59;6189618;28;96561;-89
2022/06/26 01:58:06;;;;;;;;;13.00;12.00;;;;;24.53;41.69;98538.97;6219459;28;96323;-88
2022/06/26 02:01:34;;;;;;;;;11.00;11.00;;;;;24.90;41.99;98595.50;6188984;28;100343;-89
2022/06/26 02:04:38;;;;;;;;;15.00;14.00;;;;;24.78;42.21;98597.22;6191936;28;96958;-89
2022/06/26 02:07:42;;;;;;;;;13.00;11.80;;;;;24.64;42.28;98572.56;6184594;28;97637;-88
2022/06/26 02:14:10;;;;;;;;;12.00;12.00;;;;;24.67;42.89;98615.22;6197627;28;97606;-89
2022/06/26 02:17:21;;;;;;;;;11.80;11.00;;;;;24.45;43.44;98610.59;6200631;28;98041;-89
2022/06/26 02:20:25;;;;;;;;;11.60;11.00;;;;;24.34;43.80;98609.25;6198451;28;98026;-89
2022/06/26 02:23:35;;;;;;;;;13.75;12.75;;;;;24.15;44.00;98603.97;6194679;28;97057;-89
2022/06/26 02:26:50;;;;;;;;;12.00;10.00;;;;;24.07;44.40;98593.72;6209572;28;98141;-88
2022/06/26 02:30:00;;;;;;;;;11.00;11.00;;;;;24.04;44.45;98594.38;6197840;28;96964;-89
2022/06/26 02:33:05;;;;;;;;;12.00;11.20;;;;;24.14;44.44;98611.41;6206960;28;97047;-89
2022/06/26 02:36:14;;;;;;;;;12.00;11.40;;;;;23.69;44.91;98552.09;6198460;28;98258;-89
2022/06/26 02:39:33;;;;;;;;;10.75;9.75;;;;;23.73;44.78;98578.66;6215503;28;96690;-89
2022/06/26 02:42:38;;;;;;;;;12.40;12.40;;;;;24.01;44.87;98620.59;6190725;28;97069;-88
2022/06/26 02:45:42;;;;;;;;;14.00;12.00;;;;;23.63;44.98;98578.91;6201016;28;96847;-89
2022/06/26 02:48:45;;;;;;;;;12.80;11.80;;;;;23.97;44.88;98638.06;6214715;28;97510;-89
2022/06/26 02:51:51;;;;;;;;;15.00;13.00;;;;;23.75;45.04;98616.84;6181360;28;97575;-89
2022/06/26 02:54:56;;;;;;;;;11.20;11.00;;;;;23.94;44.91;98639.50;6190411;28;96864;-89
2022/06/26 02:58:06;;;;;;;;;13.00;13.00;;;;;23.71;45.25;98624.13;6187523;28;96855;-89
2022/06/26 03:01:16;;;;;;;;;13.50;11.00;;;;;23.79;45.56;98650.91;6190887;28;96383;-89
2022/06/26 03:04:28;;;;;;;;;14.60;12.00;;;;;23.13;45.73;98553.44;6180244;28;97521;-89
2022/06/26 03:07:38;;;;;;;;;15.20;14.00;;;;;23.75;46.00;98647.13;6193024;28;97524;-89
2022/06/26 03:10:42;;;;;;;;;13.00;13.00;;;;;23.53;46.23;98622.38;6197660;28;97485;-89
2022/06/26 03:13:47;;;;;;;;;12.20;12.00;;;;;23.72;46.25;98643.09;6197323;28;96437;-89
2022/06/26 03:17:08;;;;;;;;;13.00;12.00;;;;;23.75;46.44;98644.38;6205883;28;97766;-89
2022/06/26 03:20:13;;;;;;;;;16.00;13.50;;;;;23.66;46.78;98632.50;6185871;28;97635;-89
2022/06/26 03:23:18;;;;;;;;;15.50;13.50;;;;;23.80;46.89;98647.00;6190364;28;98054;-88
2022/06/26 03:26:21;;;;;;;;;15.00;13.00;;;;;23.73;46.84;98646.66;6218632;28;96579;-89
2022/06/26 03:29:26;;;;;;;;;13.00;12.00;;;;;23.54;47.15;98618.50;6186544;28;98025;-89
2022/06/26 03:32:32;;;;;;;;;16.00;14.00;;;;;23.86;47.06;98654.03;6195266;28;96660;-89
2022/06/26 03:35:43;;;;;;;;;13.60;12.60;;;;;23.91;47.04;98653.88;6178620;28;97062;-89
2022/06/26 03:38:47;;;;;;;;;13.00;12.00;;;;;23.98;46.25;98654.28;6184590;28;97068;-89
2022/06/26 03:42:00;;;;;;;;;13.80;10.20;;;;;23.86;45.94;98648.50;6212158;28;98543;-89
2022/06/26 03:49:15;;;;;;;;;13.00;12.25;;;;;24.04;46.24;98650.25;6191388;28;98271;-90
2022/06/26 03:52:22;;;;;;;;;13.25;13.00;;;;;24.07;46.16;98632.28;6191330;28;99235;-89
2022/06/26 03:55:29;;;;;;;;;15.00;14.00;;;;;24.27;46.13;98661.25;6188413;28;98355;-89
2022/06/26 03:58:34;;;;;;;;;11.00;10.67;;;;;24.32;46.37;98661.94;6186237;28;98024;-89
2022/06/26 04:01:38;;;;;;;;;12.80;12.00;;;;;24.48;46.22;98687.94;6195247;28;96475;-89
2022/06/26 04:04:43;;;;;;;;;12.00;11.50;;;;;23.53;45.81;98506.81;6196324;28;98949;-89
2022/06/26 04:08:15;;;;;;;;;14.40;12.40;;;;;24.60;45.53;98671.63;6183658;28;97010;-89
2022/06/26 04:11:22;;;;;;;;;13.00;11.00;;;;;24.50;45.44;98635.25;6211967;28;96675;-90
2022/06/26 04:14:34;;;;;;;;;12.40;12.40;;;;;24.79;45.02;98676.88;6206896;28;96614;-89
2022/06/26 04:17:38;;;;;;;;;13.00;12.00;;;;;24.75;44.42;98642.81;6180939;28;97504;-89
2022/06/26 04:20:48;;;;;;;;;13.00;12.00;;;;;24.84;44.12;98642.81;6183322;28;100853;-89
2022/06/26 04:23:53;;;;;;;;;13.00;11.00;;;;;25.19;44.20;98694.19;6176967;28;97027;-89
2022/06/26 04:26:57;;;;;;;;;15.60;14.00;;;;;25.29;43.78;98679.28;6190942;28;97116;-89
2022/06/26 04:30:09;;;;;;;;;15.60;14.60;;;;;25.29;43.67;98671.81;6195855;28;96490;-89
2022/06/26 04:33:19;;;;;;;;;14.00;12.00;;;;;25.52;43.45;98688.22;6205183;28;96821;-89
2022/06/26 04:36:24;;;;;;;;;13.60;13.60;;;;;24.74;43.09;98555.72;6194015;28;96346;-89
2022/06/26 04:39:28;;;;;;;;;15.00;13.00;;;;;25.73;43.13;98694.75;6208175;28;97438;-89
2022/06/26 04:42:39;;;;;;;;;14.60;13.60;;;;;25.72;42.70;98674.59;6185280;28;97015;-89
2022/06/26 04:45:44;;;;;;;;;17.50;15.50;;;;;25.82;42.59;98674.28;6191675;28;97480;-89
2022/06/26 04:48:48;;;;;;;;;14.20;13.60;;;;;25.86;42.23;98666.13;6195191;28;97228;-89
2022/06/26 04:51:57;;;;;;;;;17.00;15.00;;;;;26.18;41.75;98695.19;6196107;28;98792;-89
2022/06/26 04:55:32;;;;;;;;;14.00;14.00;;;;;26.19;41.82;98694.84;6222092;28;97196;-89
2022/06/26 04:58:37;;;;;;;;;16.00;15.00;;;;;25.75;41.79;98604.13;6184284;28;98099;-89
2022/06/26 05:01:40;;;;;;;;;16.00;14.00;;;;;26.16;41.51;98658.75;6180801;28;99577;-89
2022/06/26 05:04:51;;;;;;;;;17.40;15.00;;;;;26.26;41.78;98663.97;6195557;28;96523;-89
2022/06/26 05:11:31;;;;;;;;;15.00;13.00;;;;;26.55;41.85;98677.84;6182216;28;98013;-89
2022/06/26 05:14:35;;;;;;;;;15.00;14.00;;;;;26.81;41.58;98701.81;6201926;28;97669;-88
2022/06/26 05:17:54;;;;;;;;;15.00;14.00;;;;;26.81;41.43;98688.81;6207284;28;97480;-89
2022/06/26 05:21:00;;;;;;;;;14.80;13.80;;;;;27.06;41.42;98714.75;6200878;28;96425;-89
2022/06/26 05:24:14;;;;;;;;;15.60;14.00;;;;;27.02;40.90;98716.56;6198791;28;97599;-89
2022/06/26 05:27:21;;;;;;;;;13.75;13.00;;;;;26.73;41.08;98668.31;6199473;28;99055;-89
2022/06/26 05:30:25;;;;;;;;;13.00;13.00;;;;;27.16;41.06;98714.38;6199338;28;97434;-89
2022/06/26 05:33:35;;;;;;;;;14.00;14.00;;;;;27.29;40.64;98720.78;6199784;28;97712;-89
2022/06/26 05:36:38;;;;;;;;;14.60;14.00;;;;;27.17;40.50;98680.78;6185253;28;96857;-89
2022/06/26 05:39:51;;;;;;;;;13.20;12.60;;;;;27.42;40.36;98720.53;6194770;28;96347;-89
2022/06/26 05:43:12;;;;;;;;;13.50;13.00;;;;;27.37;40.26;98704.09;6205713;28;98020;-89
2022/06/26 05:46:17;;;;;;;;;15.60;14.00;;;;;27.36;40.56;98710.81;6192758;28;97740;-89
2022/06/26 05:49:41;;;;;;;;;16.00;14.60;;;;;27.39;40.68;98723.16;6209718;28;97310;-89
2022/06/26 05:52:57;;;;;;;;;15.00;14.00;;;;;27.47;40.20;98739.72;6188321;28;97758;-89
2022/06/26 05:56:19;;;;;;;;;15.00;14.00;;;;;27.14;40.18;98692.56;6199781;28;97338;-88
2022/06/26 05:59:31;;;;;;;;;17.00;15.60;;;;;27.33;40.31;98721.72;6189543;28;96583;-89
2022/06/26 06:03:01;;;;;;;;;16.25;15.00;;;;;27.54;40.51;98731.72;6221331;28;97309;-88
2022/06/26 06:06:18;;;;;;;;;14.60;14.60;;;;;27.80;40.56;98741.78;6197051;28;97054;-89
2022/06/26 06:09:24;;;;;;;;;16.00;14.60;;;;;27.86;39.57;98766.16;6216051;28;97120;-88
2022/06/26 06:12:31;;;;;;;;;15.50;15.00;;;;;27.70;39.76;98722.81;6206205;28;96787;-88
2022/06/26 06:15:36;;;;;;;;;15.20;13.00;;;;;27.69;39.79;98735.03;6202037;28;97737;-88
2022/06/26 06:18:40;;;;;;;;;14.00;14.00;;;;;27.71;40.42;98721.66;6206466;28;97719;-89
2022/06/26 06:21:49;;;;;;;;;16.00;16.00;;;;;28.04;40.26;98752.19;6223200;28;97480;-88
2022/06/26 06:24:55;;;;;;;;;16.40;14.40;;;;;28.23;40.48;98742.25;6204665;28;96784;-89
2022/06/26 06:28:16;;;;;;;;;15.00;14.25;;;;;28.30;39.02;98769.41;6195569;28;98209;-89
2022/06/26 06:31:21;;;;;;;;;15.00;15.00;;;;;28.18;39.72;98744.41;6203923;28;97690;-88
2022/06/26 06:34:25;;;;;;;;;16.00;14.00;;;;;27.95;40.04;98728.09;6205459;28;97483;-89
2022/06/26 06:37:29;;;;;;;;;17.75;17.00;;;;;28.12;39.65;98743.00;6206423;28;96454;-89
2022/06/26 06:40:34;;;;;;;;;13.00;12.40;;;;;28.01;40.25;98734.25;6205633;28;96438;-88
2022/06/26 06:43:45;;;;;;;;;14.00;13.00;;;;;28.27;40.56;98757.03;6204820;28;96824;-89
2022/06/26 06:47:08;;;;;;;;;15.20;15.20;;;;;28.63;40.06;98769.41;6237620;28;97948;-88
2022/06/26 06:50:41;;;;;;;;;14.00;13.00;;;;;28.78;39.33;98769.56;6239890;28;97914;-89
2022/06/26 06:53:56;;;;;;;;;19.00;16.67;;;;;28.89;38.75;98775.47;6199834;28;97528;-88
2022/06/26 06:57:05;;;;;;;;;16.75;15.00;;;;;28.72;39.56;98743.22;6189245;28;96308;-89
2022/06/26 07:00:14;;;;;;;;;16.00;15.00;;;;;28.91;38.85;98761.25;6220783;28;99086;-89
2022/06/26 07:03:22;;;;;;;;;15.60;14.80;;;;;29.29;39.21;98784.75;6209529;28;96489;-88
2022/06/26 07:06:47;;;;;;;;;12.00;12.00;;;;;29.51;38.02;98779.91;6235043;28;96500;-88
2022/06/26 07:09:59;;;;;;;;;14.00;14.00;;;;;29.63;38.46;98766.00;6225596;28;98166;-89
2022/06/26 07:13:05;;;;;;;;;11.60;11.00;;;;;29.88;35.30;98778.69;6204143;28;97641;-90
2022/06/26 07:16:16;;;;;;;;;11.40;11.00;;;;;30.02;35.76;98762.44;6197439;28;97627;-88
2022/06/26 07:19:26;;;;;;;;;12.00;11.60;;;;;30.07;34.51;98762.19;6191992;28;98878;-88
2022/06/26 07:22:37;;;;;;;;;12.00;11.00;;;;;30.25;34.43;98782.16;6207526;28;96966;-89
2022/06/26 07:26:24;;;;;;;;;10.60;10.00;;;;;30.13;34.37;98748.84;6218088;28;96820;-88
2022/06/26 07:29:28;;;;;;;;;11.00;11.00;;;;;30.16;33.67;98761.22;6167536;28;97474;-89
2022/06/26 07:32:36;;;;;;;;;11.50;11.50;;;;;30.20;33.45;98739.91;6205510;28;98530;-89
2022/06/26 07:35:49;;;;;;;;;13.00;12.00;;;;;30.83;33.71;98786.19;6239313;28;98192;-88
2022/06/26 07:39:04;;;;;;;;;11.40;11.00;;;;;31.13;33.05;98789.34;6198798;28;97909;-89
2022/06/26 07:42:09;;;;;;;;;10.60;10.60;;;;;31.27;32.48;98786.13;6205609;28;97480;-89
2022/06/26 07:45:17;;;;;;;;;12.80;10.80;;;;;31.22;31.17;98787.22;6204108;27;97061;-90
2022/06/26 07:52:40;;;;;;;;;10.00;9.00;;;;;31.60;32.16;98775.41;6212158;28;96874;-90
2022/06/26 07:55:45;;;;;;;;;9.40;8.00;;;;;31.73;30.12;98751.00;6197605;28;96876;-90
2022/06/26 07:58:52;;;;;;;;;9.40;9.40;;;;;31.84;30.48;98743.69;6199123;28;101001;-89
2022/06/26 08:02:26;;;;;;;;;9.75;8.75;;;;;32.17;30.33;98777.47;6217646;28;97587;-88
2022/06/26 08:05:39;;;;;;;;;8.00;8.00;;;;;32.33;29.37;98782.16;6211114;28;96974;-89
2022/06/26 08:08:43;;;;;;;;;10.40;10.00;;;;;32.33;29.69;98755.06;6203507;28;96843;-88
2022/06/26 08:11:49;;;;;;;;;11.20;10.00;;;;;32.68;29.48;98785.69;6216879;28;96707;-89
2022/06/26 08:14:53;;;;;;;;;9.67;9.00;;;;;32.79;28.26;98780.28;6199057;28;97442;-89
2022/06/26 08:18:05;;;;;;;;;9.00;8.00;;;;;32.82;29.49;98743.25;6203212;28;97103;-89
2022/06/26 08:25:06;;;;;;;;;10.80;10.60;;;;;33.46;28.07;98784.25;6202333;28;96730;-89
2022/06/26 08:43:31;;;;;;;;;9.00;8.00;;;;;33.39;27.48;98767.34;6201782;28;97298;-91
2022/06/26 08:46:41;;;;;;;;;8.00;8.00;;;;;33.17;27.02;98774.59;6194298;28;96615;-91
2022/06/26 08:49:51;;;;;;;;;9.25;9.00;;;;;33.22;27.84;98735.19;6198485;28;96488;-91
2022/06/26 08:53:00;;;;;;;;;9.00;9.00;;;;;32.77;27.21;98623.50;6221224;28;97817;-91
2022/06/26 09:00:51;;;;;;;;;9.00;9.00;;;;;34.14;27.36;98746.84;6224243;28;97094;-91
2022/06/26 09:08:19;;;;;;;;;8.40;8.00;;;;;34.14;25.63;98755.25;6210186;28;97466;-91
2022/06/26 09:11:42;;;;;;;;;8.00;7.50;;;;;34.31;25.57;98775.06;6210695;28;96611;-91
2022/06/26 09:14:52;;;;;;;;;9.00;8.00;;;;;33.97;25.61;98730.63;6213726;28;96544;-91
2022/06/26 09:18:38;;;;;;;;;7.20;7.20;;;;;34.34;25.52;98774.31;6208067;28;96573;-91
2022/06/26 09:21:42;;;;;;;;;8.80;8.00;;;;;34.28;25.88;98756.25;6205114;28;96291;-92
2022/06/26 09:24:54;;;;;;;;;7.60;7.60;;;;;34.46;24.77;98759.25;6209357;28;97195;-91
2022/06/26 09:28:06;;;;;;;;;9.00;8.75;;;;;34.72;26.02;98739.56;6195623;28;96498;-91
2022/06/26 09:31:40;;;;;;;;;7.00;7.00;;;;;35.27;25.05;98772.47;6222823;27;98813;-91
2022/06/26 09:34:49;;;;;;;;;10.00;9.00;;;;;35.30;24.21;98771.69;6221140;28;96487;-90
2022/06/26 09:41:49;;;;;;;;;9.00;9.00;;;;;35.13;24.25;98753.53;6217242;28;96802;-91
2022/06/26 09:45:10;;;;;;;;;8.00;7.00;;;;;35.34;24.34;98762.09;6237286;28;96610;-90
2022/06/26 09:51:33;;;;;;;;;9.00;9.00;;;;;35.61;23.90;98749.50;6222011;28;96936;-90
2022/06/26 09:54:37;;;;;;;;;9.00;7.00;;;;;35.86;23.29;98766.50;6227655;28;97063;-91
2022/06/26 09:57:46;;;;;;;;;7.00;7.00;;;;;36.25;23.66;98772.31;6220853;28;96287;-90
2022/06/26 10:11:54;;;;;;;;;7.00;6.80;;;;;36.71;24.24;98780.06;6217377;28;96769;-90
2022/06/26 10:15:03;;;;;;;;;7.60;7.00;;;;;37.09;23.77;98776.56;6185850;28;96480;-91
2022/06/26 10:18:37;;;;;;;;;9.00;9.00;;;;;37.24;23.11;98771.75;6210424;28;96400;-91
2022/06/26 10:21:44;;;;;;;;;7.00;6.80;;;;;37.43;22.42;98762.06;6211851;28;96354;-92
2022/06/26 10:25:05;;;;;;;;;8.00;8.00;;;;;37.84;21.50;98785.72;6238095;28;96788;-92
2022/06/26 10:34:10;;;;;;;;;8.00;8.00;;;;;38.04;19.01;98784.09;6078967;28;97211;-90
2022/06/26 10:37:58;;;;;;;;;8.50;7.50;;;;;37.59;20.95;98720.25;6077952;28;96661;-91
2022/06/26 10:45:05;;;;;;;;;8.00;8.00;;;;;38.30;20.80;98777.16;6098739;28;96584;-91
2022/06/26 10:52:12;;;;;;;;;7.75;7.00;;;;;38.00;21.36;98724.19;6091644;28;96380;-92
2022/06/26 10:55:15;;;;;;;;;6.50;6.00;;;;;38.45;20.00;98763.81;6077915;28;96309;-90
2022/06/26 10:58:29;;;;;;;;;6.00;6.00;;;;;38.49;19.13;98736.44;6076186;28;96587;-91
2022/06/26 11:01:47;;;;;;;;;7.00;7.00;;;;;38.41;18.40;98741.28;6079016;28;96386;-91
2022/06/26 11:05:00;;;;;;;;;8.00;7.00;;;;;38.38;19.70;98742.09;6079190;28;96378;-90
2022/06/26 11:08:05;;;;;;;;;7.00;7.00;;;;;38.44;19.28;98743.31;6185157;28;96926;-93
2022/06/26 11:11:20;;;;;;;;;6.00;6.00;;;;;38.79;19.13;98756.38;6201546;28;96891;-91
2022/06/26 11:14:39;;;;;;;;;7.00;7.00;;;;;38.67;17.84;98744.75;6201131;28;96903;-91
2022/06/26 11:17:52;;;;;;;;;7.60;6.60;;;;;38.64;18.37;98749.22;6168400;28;96897;-92
2022/06/26 11:20:57;;;;;;;;;6.50;6.50;;;;;38.80;18.15;98757.16;6191590;28;97981;-91
2022/06/26 11:31:59;;;;;;;;;8.00;8.00;;;;;38.08;18.60;98742.63;6223604;28;96387;-91
2022/06/26 11:38:59;;;;;;;;;7.50;7.00;;;;;37.55;19.31;98691.34;6207357;28;96499;-91
2022/06/26 11:43:08;;;;;;;;;6.80;6.80;;;;;37.68;18.97;98700.97;6242868;28;96514;-92
2022/06/26 11:49:44;;;;;;;;;6.20;5.00;;;;;37.82;19.69;98743.13;6243980;28;96929;-92
2022/06/26 11:52:54;;;;;;;;;5.40;5.40;;;;;36.89;18.31;98604.72;6201540;28;97111;-92
2022/06/26 11:55:59;;;;;;;;;7.00;6.00;;;;;37.63;19.88;98721.84;6200533;28;96323;-92
2022/06/26 11:59:33;;;;;;;;;6.00;6.00;;;;;37.92;19.53;98753.56;6184490;28;96434;-91
2022/06/26 12:06:36;;;;;;;;;7.00;7.00;;;;;38.02;17.85;98743.50;6181267;27;96966;-91
2022/06/26 12:09:42;;;;;;;;;7.00;6.00;;;;;37.98;18.28;98740.63;6191842;28;96393;-92
2022/06/26 12:12:54;;;;;;;;;7.60;7.00;;;;;37.85;18.78;98716.19;6181678;28;96797;-91
2022/06/26 12:19:39;;;;;;;;;5.00;5.00;;;;;37.87;18.28;98750.34;6208741;28;96319;-90
2022/06/26 12:22:50;;;;;;;;;7.00;6.00;;;;;37.51;18.87;98713.84;6216142;28;96187;-92
2022/06/26 12:30:24;;;;;;;;;6.00;6.00;;;;;37.53;18.49;98691.78;6217405;28;96515;-91
2022/06/26 12:38:21;;;;;;;;;5.00;4.80;;;;;37.36;19.18;98712.25;6200457;28;96203;-91
2022/06/26 12:41:33;;;;;;;;;6.00;5.00;;;;;37.62;19.61;98717.47;6189670;28;96355;-91
2022/06/26 12:44:52;;;;;;;;;5.40;5.40;;;;;37.91;19.99;98709.72;6198258;28;96395;-90
2022/06/26 12:49:09;;;;;;;;;5.00;5.00;;;;;38.02;19.10;98710.50;6216752;28;96503;-92
2022/06/26 12:52:48;;;;;;;;;5.50;4.50;;;;;37.88;18.48;98688.00;6184361;28;96935;-92
2022/06/26 12:56:34;;;;;;;;;5.67;5.00;;;;;38.24;19.17;98727.28;6215912;28;96792;-92
2022/06/26 12:59:41;;;;;;;;;7.00;6.00;;;;;38.10;18.17;98719.72;6214949;28;96413;-90
2022/06/26 13:02:58;;;;;;;;;6.80;6.00;;;;;37.71;18.68;98719.84;6183425;28;97200;-90
2022/06/26 13:06:27;;;;;;;;;6.00;6.00;;;;;37.76;19.36;98707.38;6207289;28;97647;-91
2022/06/26 13:09:39;;;;;;;;;5.80;5.80;;;;;37.81;18.82;98716.19;6172740;28;96204;-91
2022/06/26 13:12:59;;;;;;;;;6.75;6.75;;;;;37.19;19.19;98649.22;6181044;28;96389;-92
2022/06/26 13:20:45;;;;;;;;;7.75;6.00;;;;;37.29;19.16;98707.44;6181330;28;96552;-91
2022/06/26 13:28:20;;;;;;;;;6.00;6.00;;;;;37.90;19.71;98705.31;6125697;28;96864;-91
2022/06/26 13:31:38;;;;;;;;;6.40;5.40;;;;;38.14;18.78;98712.06;6106841;28;96443;-92
2022/06/26 13:34:41;;;;;;;;;6.40;6.00;;;;;38.16;19.02;98698.38;6122563;28;98106;-92
2022/06/26 13:37:47;;;;;;;;;6.50;6.00;;;;;38.36;18.87;98707.13;6122353;28;96708;-91
2022/06/26 13:40:51;;;;;;;;;7.00;6.50;;;;;37.99;18.51;98677.53;6132340;28;96946;-92
2022/06/26 13:44:32;;;;;;;;;5.00;5.00;;;;;38.41;19.39;98709.50;6134577;28;97313;-91
2022/06/26 13:48:29;;;;;;;;;6.80;6.20;;;;;38.57;17.68;98716.25;6143647;28;96335;-92
2022/06/26 13:52:31;;;;;;;;;7.00;7.00;;;;;38.43;18.22;98701.44;6127191;28;96289;-92
2022/06/26 13:56:23;;;;;;;;;6.00;6.00;;;;;37.80;18.42;98674.38;6110542;28;96352;-92
2022/06/26 13:59:41;;;;;;;;;8.00;7.00;;;;;37.86;19.00;98710.16;6185101;28;96598;-91
2022/06/26 14:02:46;;;;;;;;;6.20;6.20;;;;;37.70;19.43;98710.59;6210689;28;96502;-91
2022/06/26 14:05:51;;;;;;;;;7.00;7.00;;;;;37.14;19.41;98651.66;6200293;28;96336;-90
2022/06/26 14:08:56;;;;;;;;;6.00;6.00;;;;;37.38;19.61;98693.00;6174727;28;96448;-91
2022/06/26 14:12:00;;;;;;;;;7.20;7.00;;;;;37.52;19.30;98712.63;6184398;28;96882;-92
2022/06/26 14:15:07;;;;;;;;;8.00;7.40;;;;;37.49;19.29;98676.06;6189362;28;99584;-91
2022/06/26 14:18:26;;;;;;;;;8.00;7.50;;;;;37.67;19.93;98697.34;6174818;28;98974;-90
2022/06/26 14:25:55;;;;;;;;;8.00;7.00;;;;;37.77;19.31;98697.72;6208073;28;98169;-91
2022/06/26 14:25:59;;;;;;;;;8.00;8.00;;;;;37.73;19.93;98708.97;6210248;28;96800;-90
2022/06/26 14:29:42;;;;;;;;;7.00;6.00;;;;;37.72;18.86;98719.44;6217540;28;96830;-91
2022/06/26 14:32:58;;;;;;;;;8.00;7.00;;;;;37.46;18.57;98716.25;6200688;28;96560;-91
2022/06/26 14:36:32;;;;;;;;;5.80;5.80;;;;;37.07;18.87;98719.94;6203419;28;96358;-91
2022/06/26 14:48:58;;;;;;;;;6.00;6.00;;;;;36.23;19.09;98706.53;6194411;28;96343;-91
2022/06/26 14:52:07;;;;;;;;;7.00;6.00;;;;;36.38;19.80;98708.16;6204660;28;96472;-91
2022/06/26 14:55:23;;;;;;;;;7.00;7.00;;;;;36.37;19.68;98689.69;6214465;28;98014;-90
2022/06/26 14:58:45;;;;;;;;;6.80;6.00;;;;;36.30;20.17;98678.47;6193248;28;96529;-92
2022/06/26 15:01:51;;;;;;;;;6.00;6.00;;;;;36.47;19.76;98702.97;6215774;28;96385;-91
2022/06/26 15:04:59;;;;;;;;;5.00;5.00;;;;;36.54;19.00;98705.00;6179193;28;96759;-91
2022/06/26 15:08:33;;;;;;;;;7.00;5.00;;;;;36.14;18.63;98667.59;6214639;28;97042;-91
2022/06/26 15:11:36;;;;;;;;;6.80;6.00;;;;;36.28;20.14;98708.94;6203295;28;96497;-92
2022/06/26 15:14:41;;;;;;;;;7.00;6.60;;;;;35.90;20.05;98666.31;6189929;28;96716;-90
2022/06/26 15:17:50;;;;;;;;;7.00;7.00;;;;;36.18;21.08;98696.47;6200062;28;96523;-91
2022/06/26 15:20:58;;;;;;;;;7.75;7.00;;;;;36.30;21.15;98701.75;6187009;28;98028;-91
2022/06/26 15:24:06;;;;;;;;;5.80;5.80;;;;;36.35;21.24;98692.13;6221372;28;96989;-92
2022/06/26 15:27:23;;;;;;;;;7.00;5.00;;;;;36.20;20.93;98654.78;6223456;28;96368;-92
2022/06/26 15:34:37;;;;;;;;;6.60;6.40;;;;;36.26;20.83;98697.31;6226907;28;96740;-91
2022/06/26 15:38:07;;;;;;;;;6.00;6.00;;;;;36.24;21.08;98705.31;6206669;28;96395;-91
2022/06/26 15:41:11;;;;;;;;;8.00;7.00;;;;;36.03;21.38;98703.22;6211702;28;96487;-91
2022/06/26 15:48:43;;;;;;;;;8.00;8.00;;;;;35.89;23.02;98686.34;6234508;28;97175;-92
2022/06/26 15:56:14;;;;;;;;;8.00;7.40;;;;;35.97;23.27;98708.41;6193779;28;96784;-90
2022/06/26 15:59:19;;;;;;;;;5.80;5.80;;;;;35.93;23.53;98698.38;6184109;28;98476;-92
2022/06/26 16:02:42;;;;;;;;;6.40;6.40;;;;;35.92;23.17;98696.78;6208462;28;96476;-91
2022/06/26 16:06:18;;;;;;;;;6.20;6.00;;;;;35.61;23.97;98670.97;6201915;27;96251;-93
2022/06/26 16:10:07;;;;;;;;;9.00;9.00;;;;;35.79;23.81;98696.31;6204797;28;96513;-92
2022/06/26 16:17:14;;;;;;;;;6.40;6.00;;;;;35.63;24.18;98676.16;6206276;28;97101;-92
2022/06/26 16:20:30;;;;;;;;;7.00;7.00;;;;;35.68;23.85;98692.66;6206502;28;96326;-91
2022/06/26 16:27:21;;;;;;;;;6.00;6.00;;;;;35.62;24.44;98694.22;6233862;28;96596;-91
2022/06/26 16:30:52;;;;;;;;;6.00;5.60;;;;;35.60;24.28;98686.19;6200685;28;96311;-92
2022/06/26 16:38:51;;;;;;;;;7.00;7.00;;;;;35.46;24.38;98700.13;6224273;28;97078;-91
2022/06/26 16:42:06;;;;;;;;;7.00;6.60;;;;;35.19;24.46;98685.53;6191837;28;96529;-92
2022/06/26 16:49:57;;;;;;;;;7.00;7.00;;;;;34.90;24.86;98672.47;6202269;28;96262;-92
2022/06/26 17:02:26;;;;;;;;;8.00;7.50;;;;;34.84;24.96;98699.25;6208280;28;96366;-93
2022/06/26 17:05:52;;;;;;;;;7.00;7.00;;;;;34.60;25.46;98669.78;6175991;28;96875;-91
2022/06/26 17:17:01;;;;;;;;;8.00;7.00;;;;;34.60;25.41;98691.41;6206475;28;96426;-91
2022/06/26 17:20:26;;;;;;;;;6.75;6.75;;;;;34.22;25.25;98662.63;6197165;28;96343;-92
2022/06/26 17:28:06;;;;;;;;;6.20;6.00;;;;;34.18;25.68;98684.19;6218819;28;96499;-93
2022/06/26 17:44:29;;;;;;;;;6.00;6.00;;;;;33.58;25.93;98693.75;6213156;28;97283;-92
2022/06/26 17:48:21;;;;;;;;;6.60;6.00;;;;;33.60;26.22;98703.38;6207938;28;97055;-93
2022/06/26 17:51:26;;;;;;;;;7.25;6.25;;;;;33.44;26.29;98688.78;6123392;28;96549;-91
2022/06/26 17:55:20;;;;;;;;;6.00;6.00;;;;;33.38;26.41;98698.69;6110952;28;98041;-91
2022/06/26 17:59:12;;;;;;;;;6.00;5.75;;;;;33.28;26.66;98688.16;6101637;28;96818;-91
2022/06/26 18:06:28;;;;;;;;;7.00;6.25;;;;;33.27;27.12;98712.50;6105710;28;96606;-91
2022/06/26 18:18:22;;;;;;;;;6.00;6.00;;;;;32.98;27.73;98730.78;6026147;28;96743;-91
2022/06/26 18:25:29;;;;;;;;;6.00;5.80;;;;;32.81;27.89;98722.88;6093757;28;96726;-91
2022/06/26 18:28:35;;;;;;;;;6.40;6.00;;;;;32.58;28.15;98717.28;6124688;28;96522;-91